Time;durP1;ratioP1;P1;durP2;ratioP2;P2;SDS_P1;SDS_P2;PMS_P1;PMS_P2;Temp;Humidity;BMP_temperature;BMP_pressure;BME280_temperature;BME280_humidity;BME280_pressure;Samples;Min_cycle;Max_cycle;Signal;HPM_P1;HPM_P2
2021/01/08 00:01:09;;;;;;;1.98;1.15;;;;;;;1.95;97.10;98049.78;1676353;85;21170;-70
2021/01/08 00:03:40;;;;;;;2.00;1.10;;;;;;;1.95;96.81;98056.14;1702820;83;21201;-71
2021/01/08 00:06:08;;;;;;;1.98;1.10;;;;;;;1.95;97.00;98059.55;1750892;82;21133;-70
2021/01/08 00:08:35;;;;;;;2.45;1.15;;;;;;;1.93;96.88;98062.48;1702500;83;21173;-67
2021/01/08 00:11:06;;;;;;;2.70;1.35;;;;;;;1.93;96.84;98055.23;1750352;82;21193;-69
2021/01/08 00:13:33;;;;;;;3.85;1.25;;;;;;;1.95;96.80;98059.55;1749338;82;21573;-71
2021/01/08 00:16:01;;;;;;;1.82;1.10;;;;;;;1.96;96.35;98060.44;1748862;81;21228;-70
2021/01/08 00:18:29;;;;;;;2.58;1.40;;;;;;;1.93;95.74;98071.38;1750236;81;21595;-72
2021/01/08 00:20:56;;;;;;;2.30;1.10;;;;;;;1.89;96.05;98073.37;1750605;82;21154;-72
2021/01/08 00:23:23;;;;;;;1.47;1.20;;;;;;;1.87;96.10;98084.31;1702472;83;21569;-72
2021/01/08 00:25:52;;;;;;;2.12;1.00;;;;;;;1.87;96.23;98088.98;1702422;83;21170;-68
2021/01/08 00:28:20;;;;;;;1.62;1.22;;;;;;;1.87;96.13;98082.63;1702453;83;21406;-70
2021/01/08 00:30:47;;;;;;;2.22;1.12;;;;;;;1.85;96.27;98090.61;1702637;83;21170;-70
2021/01/08 00:33:15;;;;;;;2.05;1.30;;;;;;;1.87;96.33;98097.89;1702618;84;21537;-72
2021/01/08 00:35:43;;;;;;;2.33;1.40;;;;;;;1.86;96.09;98083.45;1702481;84;21189;-74
2021/01/08 00:38:11;;;;;;;2.42;1.27;;;;;;;1.84;96.38;98093.98;1750345;82;21169;-66
2021/01/08 00:40:39;;;;;;;2.33;1.20;;;;;;;1.83;95.86;98080.82;1750497;82;21165;-70
2021/01/08 00:43:07;;;;;;;3.20;1.20;;;;;;;1.86;96.09;98090.23;1702316;83;21316;-69
2021/01/08 00:45:35;;;;;;;1.75;1.10;;;;;;;1.86;95.49;98081.33;1702319;83;21315;-72
2021/01/08 00:48:03;;;;;;;1.70;1.22;;;;;;;1.77;95.37;98103.50;1750342;81;21307;-72
2021/01/08 00:50:31;;;;;;;2.10;1.10;;;;;;;1.68;95.00;98099.38;1702346;83;21173;-72
2021/01/08 00:52:59;;;;;;;1.80;1.02;;;;;;;1.64;95.46;98096.30;1750598;82;21177;-69
2021/01/08 00:55:27;;;;;;;1.75;1.30;;;;;;;1.63;95.16;98095.83;1702545;84;21304;-66
2021/01/08 00:57:56;;;;;;;2.02;1.32;;;;;;;1.65;95.44;98085.30;1701746;83;21126;-69
2021/01/08 01:00:25;;;;;;;1.40;1.10;;;;;;;1.66;95.11;98093.00;1750363;82;21157;-69
2021/01/08 01:02:54;;;;;;;2.27;1.32;;;;;;;1.65;94.75;98103.11;1750277;81;21244;-71
2021/01/08 01:05:21;;;;;;;2.05;1.17;;;;;;;1.64;95.10;98109.02;1750649;82;21508;-69
2021/01/08 01:07:49;;;;;;;2.10;1.20;;;;;;;1.66;94.91;98112.07;1702561;84;21193;-73
2021/01/08 01:10:17;;;;;;;3.12;1.50;;;;;;;1.70;94.91;98113.02;1702462;84;21190;-71
2021/01/08 01:12:45;;;;;;;2.05;1.47;;;;;;;1.65;94.50;98117.09;1750337;82;21162;-71
2021/01/08 01:15:17;;;;;;;1.70;1.25;;;;;;;1.64;94.70;98114.11;1750157;82;21167;-71
2021/01/08 01:17:44;;;;;;;1.67;0.98;;;;;;;1.64;94.38;98126.82;1750333;82;21169;-71
2021/01/08 01:20:13;;;;;;;2.98;1.40;;;;;;;1.62;93.93;98120.41;1750392;82;21158;-75
2021/01/08 01:22:40;;;;;;;1.62;1.05;;;;;;;1.63;93.69;98121.27;1702487;83;21311;-75
2021/01/08 01:25:09;;;;;;;1.98;1.30;;;;;;;1.65;93.78;98118.37;1750597;82;21264;-66
2021/01/08 01:27:38;;;;;;;2.25;1.22;;;;;;;1.64;93.53;98126.82;1702921;83;21729;-66
2021/01/08 01:30:09;;;;;;;2.47;1.55;;;;;;;1.62;93.91;98125.48;1752241;82;21572;-63
2021/01/08 01:32:36;;;;;;;3.20;1.50;;;;;;;1.63;93.96;98132.33;1704368;83;21299;-69
2021/01/08 01:35:06;;;;;;;3.80;1.47;;;;;;;1.67;93.85;98128.19;1751924;81;21580;-70
2021/01/08 01:37:34;;;;;;;2.90;1.50;;;;;;;1.69;93.42;98136.33;1702577;83;21182;-66
2021/01/08 01:40:02;;;;;;;2.45;1.20;;;;;;;1.74;93.54;98135.20;1702514;83;21288;-73
2021/01/08 01:42:30;;;;;;;2.80;1.50;;;;;;;1.77;93.10;98137.84;1702315;83;21134;-71
2021/01/08 01:44:57;;;;;;;1.72;1.02;;;;;;;1.78;92.93;98138.32;1702428;84;21169;-73
2021/01/08 01:47:26;;;;;;;1.92;1.20;;;;;;;1.76;92.50;98131.04;1750467;82;21153;-72
2021/01/08 01:49:55;;;;;;;2.45;1.55;;;;;;;1.71;92.43;98138.52;1702469;84;21308;-74
2021/01/08 01:52:22;;;;;;;2.83;1.40;;;;;;;1.73;92.53;98130.91;1750293;82;21315;-70
2021/01/08 01:54:50;;;;;;;2.92;1.50;;;;;;;1.72;91.91;98145.73;1750322;82;21177;-73
2021/01/08 01:57:17;;;;;;;2.58;1.42;;;;;;;1.76;92.18;98146.72;1750329;82;21162;-71
2021/01/08 01:59:45;;;;;;;2.20;1.10;;;;;;;1.77;92.24;98142.92;1750274;82;21153;-69
2021/01/08 02:02:23;;;;;;;3.27;1.40;;;;;;;1.73;92.45;98148.72;1750510;82;21138;-69
2021/01/08 02:04:54;;;;;;;1.95;1.30;;;;;;;1.76;92.76;98155.62;1709329;84;21193;-75
2021/01/08 02:07:24;;;;;;;1.70;1.20;;;;;;;1.76;92.65;98151.39;1709732;84;21592;-74
2021/01/08 02:09:52;;;;;;;2.42;1.20;;;;;;;1.80;92.89;98153.20;1709598;84;21568;-70
2021/01/08 02:12:21;;;;;;;2.22;1.35;;;;;;;1.83;92.70;98150.78;1709302;83;21204;-75
2021/01/08 02:14:50;;;;;;;2.70;1.40;;;;;;;1.85;92.65;98156.75;1709649;83;21189;-71
2021/01/08 02:17:19;;;;;;;3.12;1.70;;;;;;;1.80;92.37;98155.73;1709542;83;21202;-74
2021/01/08 02:19:51;;;;;;;2.17;1.27;;;;;;;1.79;92.40;98159.52;1709334;83;21189;-71
2021/01/08 02:22:22;;;;;;;;;;;;;;;1.82;92.15;98165.98;1711944;83;21412;-73
2021/01/08 02:25:00;;;;;;;3.10;1.60;;;;;;;1.86;92.07;98157.23;1709157;83;20156;-71
2021/01/08 02:27:30;;;;;;;1.95;1.27;;;;;;;1.86;91.78;98159.77;1709616;83;21308;-68
2021/01/08 02:30:00;;;;;;;2.47;1.45;;;;;;;1.83;91.90;98168.59;1709440;84;21141;-69
2021/01/08 02:32:29;;;;;;;3.70;1.20;;;;;;;1.86;91.57;98180.54;1709606;83;21591;-71
2021/01/08 02:34:57;;;;;;;2.62;1.40;;;;;;;1.86;91.60;98180.54;1693893;84;21150;-73
2021/01/08 02:37:26;;;;;;;2.60;1.45;;;;;;;1.87;91.62;98172.94;1709493;83;21137;-69
2021/01/08 02:39:54;;;;;;;2.50;1.40;;;;;;;1.90;91.65;98174.72;1693927;84;21315;-71
2021/01/08 02:42:23;;;;;;;2.45;1.40;;;;;;;1.90;91.28;98176.84;1709654;83;21714;-72
2021/01/08 02:44:51;;;;;;;1.82;1.17;;;;;;;1.86;91.23;98180.54;1709659;83;21591;-74
2021/01/08 02:47:20;;;;;;;3.27;1.60;;;;;;;1.79;91.27;98190.91;1709663;84;21190;-70
2021/01/08 02:49:48;;;;;;;3.37;1.52;;;;;;;1.76;91.14;98194.63;1709546;83;21173;-70
2021/01/08 02:52:17;;;;;;;3.15;1.80;;;;;;;1.78;91.34;98193.01;1709696;84;21173;-65
2021/01/08 02:54:44;;;;;;;2.35;1.45;;;;;;;1.83;91.19;98199.11;1709743;83;21682;-72
2021/01/08 02:57:14;;;;;;;2.05;1.40;;;;;;;1.86;91.25;98201.75;1709456;83;21169;-72
2021/01/08 02:59:42;;;;;;;3.20;1.57;;;;;;;1.91;91.31;98195.13;1709640;83;21318;-67
2021/01/08 03:02:10;;;;;;;3.30;1.55;;;;;;;1.96;91.38;98196.56;1693786;83;21327;-70
2021/01/08 03:04:38;;;;;;;3.67;1.98;;;;;;;2.01;91.49;98186.13;1726817;82;21150;-73
2021/01/08 03:07:07;;;;;;;3.98;2.27;;;;;;;2.06;91.52;98207.48;1753938;81;21571;-69
2021/01/08 03:09:35;;;;;;;3.62;2.20;;;;;;;2.09;91.67;98198.67;1705724;83;21589;-74
2021/01/08 03:12:03;;;;;;;4.00;2.22;;;;;;;2.13;91.59;98213.62;1705620;83;21178;-70
2021/01/08 03:14:31;;;;;;;3.47;2.00;;;;;;;2.11;91.51;98188.52;1705386;83;21181;-71
2021/01/08 03:16:58;;;;;;;5.08;2.25;;;;;;;2.10;91.33;98210.57;1705634;83;21574;-75
2021/01/08 03:19:26;;;;;;;4.20;2.20;;;;;;;2.11;91.46;98217.79;1705620;84;21177;-67
2021/01/08 03:21:53;;;;;;;4.37;2.35;;;;;;;2.14;91.51;98217.91;1705476;83;21189;-67
2021/01/08 03:24:21;;;;;;;3.83;2.47;;;;;;;2.17;91.47;98215.46;1705561;84;21189;-73
2021/01/08 03:26:48;;;;;;;4.67;2.50;;;;;;;2.15;91.29;98227.27;1705692;84;21283;-71
2021/01/08 03:29:15;;;;;;;4.83;2.10;;;;;;;2.16;91.24;98227.71;1705442;83;21185;-71
2021/01/08 03:31:43;;;;;;;4.37;2.17;;;;;;;2.09;91.33;98228.36;1705602;83;21177;-73
2021/01/08 03:34:11;;;;;;;3.75;1.92;;;;;;;2.10;91.51;98237.30;1705682;83;21560;-71
2021/01/08 03:36:39;;;;;;;4.05;2.20;;;;;;;2.15;91.19;98247.63;1705599;83;21713;-74
2021/01/08 03:39:06;;;;;;;4.42;2.65;;;;;;;2.18;91.09;98231.18;1705605;83;21134;-72
2021/01/08 03:41:34;;;;;;;3.80;2.20;;;;;;;2.17;91.03;98238.38;1705588;84;21695;-75
2021/01/08 03:44:02;;;;;;;4.42;2.72;;;;;;;2.14;90.97;98245.50;1705594;83;21153;-74
2021/01/08 03:46:35;;;;;;;4.08;2.33;;;;;;;2.09;90.73;98236.84;1705637;83;21316;-68
2021/01/08 03:48:59;;;;;;;4.30;2.50;;;;;;;2.05;91.17;98243.91;1705262;83;21276;-70
2021/01/08 03:51:26;;;;;;;4.72;2.95;;;;;;;2.11;91.32;98252.16;1705570;83;21189;-72
2021/01/08 03:53:54;;;;;;;5.40;2.87;;;;;;;2.15;91.30;98250.17;1705681;83;21592;-72
2021/01/08 03:56:21;;;;;;;5.28;3.17;;;;;;;2.20;91.38;98252.46;1705664;83;21168;-73
2021/01/08 03:58:48;;;;;;;4.00;2.15;;;;;;;2.24;91.37;98252.14;1705483;83;21189;-70
2021/01/08 04:01:16;;;;;;;4.92;2.58;;;;;;;2.30;91.50;98254.91;1705521;84;21300;-72
2021/01/08 04:03:44;;;;;;;5.42;2.80;;;;;;;2.34;91.37;98252.51;1704241;83;21181;-70
2021/01/08 04:06:11;;;;;;;5.05;3.12;;;;;;;2.39;91.25;98256.06;1750428;82;21627;-66
2021/01/08 04:08:39;;;;;;;5.70;3.50;;;;;;;2.44;91.10;98252.78;1750615;82;21275;-70
2021/01/08 04:11:06;;;;;;;5.05;2.83;;;;;;;2.43;91.08;98264.66;1750456;82;21295;-75
2021/01/08 04:13:34;;;;;;;5.90;3.60;;;;;;;2.45;91.27;98268.53;1723586;82;21592;-76
2021/01/08 04:16:02;;;;;;;5.55;3.40;;;;;;;2.44;91.17;98269.33;1750609;81;21185;-73
2021/01/08 04:18:30;;;;;;;5.42;3.30;;;;;;;2.43;91.14;98265.07;1750585;81;21299;-73
2021/01/08 04:20:57;;;;;;;5.10;3.00;;;;;;;2.44;91.46;98270.61;1702511;83;21734;-75
2021/01/08 04:23:25;;;;;;;7.55;3.60;;;;;;;2.46;91.52;98272.80;1702332;84;21186;-69
2021/01/08 04:25:52;;;;;;;5.03;3.25;;;;;;;2.48;91.57;98281.36;1702330;83;21142;-72
2021/01/08 04:28:20;;;;;;;6.85;3.77;;;;;;;2.51;91.72;98282.72;1702666;83;21583;-70
2021/01/08 04:30:48;;;;;;;6.12;3.90;;;;;;;2.55;91.57;98283.29;1702286;83;21158;-72
2021/01/08 04:33:15;;;;;;;5.85;3.47;;;;;;;2.58;91.61;98282.10;1750393;82;21350;-67
2021/01/08 04:35:42;;;;;;;7.87;3.35;;;;;;;2.59;91.46;98286.37;1750426;82;21722;-75
2021/01/08 04:38:10;;;;;;;7.10;3.65;;;;;;;2.55;91.56;98292.20;1702505;83;21209;-73
2021/01/08 04:40:38;;;;;;;6.03;3.60;;;;;;;2.53;91.67;98295.96;1702368;83;21307;-68
2021/01/08 04:43:06;;;;;;;5.50;3.58;;;;;;;2.56;91.65;98288.83;1750402;82;21239;-74
2021/01/08 04:45:34;;;;;;;6.58;4.30;;;;;;;2.59;91.69;98297.83;1702641;83;21145;-66
2021/01/08 04:48:03;;;;;;;6.22;3.77;;;;;;;2.59;91.64;98301.23;1750401;81;21146;-73
2021/01/08 04:50:32;;;;;;;7.85;4.35;;;;;;;2.61;91.67;98301.30;1750341;81;21311;-69
2021/01/08 04:52:59;;;;;;;8.33;4.97;;;;;;;2.60;91.75;98307.22;1684956;84;21283;-70
2021/01/08 04:55:28;;;;;;;7.78;4.65;;;;;;;2.58;91.96;98309.70;1750652;82;21299;-76
2021/01/08 04:57:57;;;;;;;7.05;4.33;;;;;;;2.61;92.09;98303.84;1724135;82;21545;-68
2021/01/08 05:00:25;;;;;;;6.90;4.30;;;;;;;2.63;92.10;98312.82;1702520;83;21193;-72
2021/01/08 05:02:53;;;;;;;8.63;5.30;;;;;;;2.64;92.16;98314.13;1750641;82;21303;-72
2021/01/08 05:05:22;;;;;;;9.20;5.60;;;;;;;2.65;92.08;98320.11;1753021;82;21177;-74
2021/01/08 05:07:50;;;;;;;9.30;5.20;;;;;;;2.63;92.23;98316.64;1753306;82;21177;-71
2021/01/08 05:10:18;;;;;;;9.78;5.53;;;;;;;2.63;92.32;98334.06;1753970;82;21576;-67
2021/01/08 05:12:49;;;;;;;9.90;6.03;;;;;;;2.66;92.19;98325.23;1753398;82;21185;-70
2021/01/08 05:15:16;;;;;;;9.20;5.47;;;;;;;2.69;92.38;98329.56;1705251;84;21189;-66
2021/01/08 05:17:44;;;;;;;11.10;6.30;;;;;;;2.69;91.97;98335.52;1705135;83;21619;-71
2021/01/08 05:20:12;;;;;;;11.08;6.05;;;;;;;2.69;92.12;98334.23;1705440;83;21174;-72
2021/01/08 05:22:40;;;;;;;7.97;5.42;;;;;;;2.71;92.06;98319.02;1705167;83;21221;-69
2021/01/08 05:25:11;;;;;;;9.45;5.80;;;;;;;2.67;92.15;98328.26;1705494;83;21525;-72
2021/01/08 05:27:38;;;;;;;10.70;6.65;;;;;;;2.64;92.09;98328.13;1705447;84;21719;-74
2021/01/08 05:30:21;;;;;;;10.70;6.67;;;;;;;2.63;92.15;98325.55;1705263;83;21182;-75
2021/01/08 05:33:05;;;;;;;13.40;7.50;;;;;;;2.64;92.16;98324.73;1705247;84;21304;-70
2021/01/08 05:35:34;;;;;;;13.62;7.28;;;;;;;2.61;92.22;98324.22;1689186;84;21134;-71
2021/01/08 05:38:07;;;;;;;14.65;8.25;;;;;;;2.63;91.97;98326.83;1705159;83;21340;-72
2021/01/08 05:40:41;;;;;;;11.25;7.03;;;;;;;2.60;91.98;98323.78;1705409;84;21170;-73
2021/01/08 05:43:09;;;;;;;14.70;7.90;;;;;;;2.54;91.83;98335.88;1705232;83;21778;-71
2021/01/08 05:45:37;;;;;;;15.28;8.05;;;;;;;2.54;91.98;98341.39;1705184;83;21311;-76
2021/01/08 05:48:08;;;;;;;15.08;8.88;;;;;;;2.60;92.18;98349.25;1705134;84;21331;-73
2021/01/08 05:50:36;;;;;;;17.17;9.68;;;;;;;2.67;92.04;98360.48;1705225;83;21178;-67
2021/01/08 05:53:08;;;;;;;13.95;9.08;;;;;;;2.70;91.76;98361.87;1689211;84;21165;-71
2021/01/08 05:55:39;;;;;;;15.60;9.60;;;;;;;2.72;91.75;98371.69;1705102;83;21173;-69
2021/01/08 05:58:19;;;;;;;15.60;9.35;;;;;;;2.75;91.72;98376.91;1705443;83;21145;-74
2021/01/08 06:00:58;;;;;;;15.20;9.00;;;;;;;2.73;91.60;98371.75;1705235;83;21130;-68
2021/01/08 06:03:27;;;;;;;16.20;9.48;;;;;;;2.74;91.60;98384.07;1705655;83;21156;-71
2021/01/08 06:05:57;;;;;;;15.28;9.73;;;;;;;2.75;91.53;98377.77;1705212;83;21197;-68
2021/01/08 06:08:55;;;;;;;17.02;9.90;;;;;;;2.78;91.43;98384.23;1705360;83;21181;-73
2021/01/08 06:11:30;;;;;;;18.62;11.28;;;;;;;2.76;91.00;98390.09;1705357;83;21335;-72
2021/01/08 06:14:06;;;;;;;18.82;11.95;;;;;;;2.74;91.32;98383.66;1705258;83;21307;-75
2021/01/08 06:16:40;;;;;;;22.13;12.20;;;;;;;2.78;91.21;98398.66;1705447;83;21572;-73
2021/01/08 06:19:09;;;;;;;22.67;13.20;;;;;;;2.78;91.22;98403.34;1705297;83;21161;-71
2021/01/08 06:21:45;;;;;;;24.30;13.18;;;;;;;2.78;91.19;98399.52;1705425;84;21323;-68
2021/01/08 06:24:28;;;;;;;22.02;12.10;;;;;;;2.81;91.08;98405.12;1675737;86;21193;-75
2021/01/08 06:26:57;;;;;;;22.58;13.62;;;;;;;2.88;91.14;98415.11;1705215;84;21177;-71
2021/01/08 06:29:28;;;;;;;27.25;14.60;;;;;;;2.95;91.05;98420.84;1660330;86;21142;-73
2021/01/08 06:32:13;;;;;;;26.27;14.10;;;;;;;2.96;90.82;98428.96;1702827;84;21378;-74
2021/01/08 06:34:47;;;;;;;24.57;13.80;;;;;;;2.95;90.73;98423.39;1748872;81;21328;-75
2021/01/08 06:37:18;;;;;;;26.30;14.28;;;;;;;2.92;90.60;98430.94;1750359;81;21297;-73
2021/01/08 06:39:46;;;;;;;26.85;15.15;;;;;;;2.92;90.70;98433.48;1750651;82;21281;-74
2021/01/08 06:42:28;;;;;;;30.50;16.30;;;;;;;2.94;90.71;98441.64;1750588;82;21165;-71
2021/01/08 06:44:56;;;;;;;27.67;15.55;;;;;;;2.94;90.72;98434.00;1750851;81;21166;-70
2021/01/08 06:47:26;;;;;;;33.67;17.73;;;;;;;2.97;90.70;98443.42;1750814;82;21189;-69
2021/01/08 06:49:56;;;;;;;33.55;18.52;;;;;;;2.97;90.56;98444.70;1725024;82;21173;-63
2021/01/08 06:52:24;;;;;;;31.00;17.17;;;;;;;2.97;90.67;98452.34;1752584;82;21280;-65
2021/01/08 06:54:54;;;;;;;29.02;16.00;;;;;;;2.98;90.59;98459.20;1751707;81;21154;-70
2021/01/08 06:57:22;;;;;;;31.20;16.48;;;;;;;2.92;90.00;98456.02;1751662;82;21165;-72
2021/01/08 07:00:01;;;;;;;28.87;16.35;;;;;;;2.89;90.34;98449.96;1750490;82;21181;-73
2021/01/08 07:02:31;;;;;;;28.57;16.15;;;;;;;2.85;90.28;98459.20;1750450;82;21166;-68
2021/01/08 07:05:01;;;;;;;29.45;16.80;;;;;;;2.86;90.35;98463.88;1750565;82;21719;-69
2021/01/08 07:07:31;;;;;;;28.77;16.12;;;;;;;2.88;90.45;98463.12;1750731;82;21173;-75
2021/01/08 07:10:00;;;;;;;28.50;15.68;;;;;;;2.92;90.40;98461.11;1750741;82;21154;-76
2021/01/08 07:12:28;;;;;;;28.23;14.55;;;;;;;2.89;90.19;98474.17;1750705;81;21581;-69
2021/01/08 07:14:55;;;;;;;28.20;15.40;;;;;;;2.83;89.99;98472.30;1750642;81;21291;-71
2021/01/08 07:17:32;;;;;;;26.57;13.72;;;;;;;2.82;90.35;98475.25;1750700;82;21593;-75
2021/01/08 07:20:05;;;;;;;26.10;14.53;;;;;;;2.85;90.07;98477.04;1750420;82;21719;-71
2021/01/08 07:22:39;;;;;;;34.10;17.50;;;;;;;2.85;89.94;98479.59;1750615;82;21300;-71
2021/01/08 07:25:13;;;;;;;26.10;15.72;;;;;;;2.83;90.22;98479.52;1750543;82;21118;-74
2021/01/08 07:27:42;;;;;;;29.75;15.53;;;;;;;2.87;90.11;98479.20;1750602;82;21142;-70
2021/01/08 07:30:13;;;;;;;27.00;15.55;;;;;;;2.86;89.98;98487.68;1750679;82;21190;-69
2021/01/08 07:32:45;;;;;;;30.23;15.53;;;;;;;2.86;90.07;98490.64;1751174;82;21801;-71
2021/01/08 07:35:29;;;;;;;25.77;15.50;;;;;;;2.89;89.84;98495.83;1750894;82;22404;-71
2021/01/08 07:38:17;;;;;;;31.62;16.42;;;;;;;2.91;89.84;98496.76;1750715;82;21718;-67
2021/01/08 07:40:52;;;;;;;29.85;16.57;;;;;;;2.98;89.73;98503.80;1750111;81;22762;-67
2021/01/08 07:43:36;;;;;;;28.95;14.98;;;;;;;3.01;89.68;98507.72;1750979;81;21138;-73
2021/01/08 07:46:05;;;;;;;30.02;15.30;;;;;;;3.02;89.32;98508.16;1750700;81;21319;-71
2021/01/08 07:48:38;;;;;;;24.87;13.98;;;;;;;2.99;89.30;98512.75;1750432;82;21154;-67
2021/01/08 07:51:09;;;;;;;25.10;14.68;;;;;;;2.97;89.16;98516.06;1750595;82;21165;-74
2021/01/08 07:53:47;;;;;;;24.45;13.95;;;;;;;2.98;89.17;98514.00;1750606;81;21295;-74
2021/01/08 07:56:19;;;;;;;26.65;14.55;;;;;;;2.98;89.00;98514.00;1750687;82;21303;-75
2021/01/08 07:59:03;;;;;;;;;;;;;;;2.91;88.87;98519.70;1753055;81;21307;-73
2021/01/08 08:01:32;;;;;;;25.82;14.20;;;;;;;2.93;88.90;98522.75;1750370;82;20137;-70
2021/01/08 08:04:04;;;;;;;24.67;13.55;;;;;;;2.97;88.73;98524.98;1746826;81;21181;-74
2021/01/08 08:06:39;;;;;;;23.75;13.85;;;;;;;3.00;88.40;98532.73;1718217;82;21197;-72
2021/01/08 08:09:07;;;;;;;22.87;12.75;;;;;;;2.96;88.37;98530.50;1714283;82;21662;-70
2021/01/08 08:11:36;;;;;;;25.20;13.43;;;;;;;2.91;88.34;98533.30;1721551;83;21583;-73
2021/01/08 08:14:09;;;;;;;22.10;12.47;;;;;;;2.96;88.40;98545.79;1692235;84;21584;-68
2021/01/08 08:16:39;;;;;;;18.70;10.43;;;;;;;2.99;87.87;98542.06;1635339;86;21186;-69
2021/01/08 08:19:09;;;;;;;19.77;11.67;;;;;;;2.97;87.75;98530.08;1699350;83;21165;-72
2021/01/08 08:21:40;;;;;;;24.23;12.68;;;;;;;2.95;88.06;98531.70;1714216;83;21579;-75
2021/01/08 08:24:08;;;;;;;24.27;12.95;;;;;;;2.86;87.66;98529.72;1708691;82;21278;-73
2021/01/08 08:26:36;;;;;;;19.48;11.55;;;;;;;2.80;88.02;98521.47;1693346;84;21169;-71
2021/01/08 08:29:13;;;;;;;23.30;12.20;;;;;;;2.81;88.17;98535.94;1708068;83;21607;-71
2021/01/08 08:31:46;;;;;;;22.82;11.05;;;;;;;2.85;88.14;98529.66;1693119;84;21164;-75
2021/01/08 08:34:17;;;;;;;23.25;13.18;;;;;;;2.90;88.19;98530.30;1707776;83;21594;-71
2021/01/08 08:36:46;;;;;;;20.80;11.80;;;;;;;2.95;87.98;98527.50;1716822;82;21623;-72
2021/01/08 08:39:14;;;;;;;22.45;12.68;;;;;;;2.94;87.73;98540.18;1750651;82;21316;-71
2021/01/08 08:41:45;;;;;;;24.77;13.00;;;;;;;2.89;87.34;98541.29;1753529;82;21160;-66
2021/01/08 08:44:19;;;;;;;27.67;13.55;;;;;;;2.83;87.30;98528.35;1753766;81;21162;-67
2021/01/08 08:46:54;;;;;;;22.00;11.90;;;;;;;2.81;87.36;98538.48;1748856;81;21162;-66
2021/01/08 08:49:25;;;;;;;28.42;13.28;;;;;;;2.77;87.31;98545.58;1719541;82;21158;-67
2021/01/08 08:51:53;;;;;;;19.73;11.78;;;;;;;2.69;87.52;98545.69;1725500;82;21138;-69
2021/01/08 08:54:24;;;;;;;20.08;11.63;;;;;;;2.73;87.63;98549.23;1729409;82;21712;-69
2021/01/08 08:56:58;;;;;;;20.85;12.45;;;;;;;2.76;87.47;98552.73;1727463;82;21575;-67
2021/01/08 08:59:41;;;;;;;22.82;12.93;;;;;;;2.76;87.47;98542.55;1735293;82;21323;-69
2021/01/08 09:02:27;;;;;;;22.93;13.08;;;;;;;2.77;87.39;98548.51;1735016;82;21169;-69
2021/01/08 09:05:02;;;;;;;20.57;12.47;;;;;;;2.77;87.37;98554.49;1730864;81;21138;-72
2021/01/08 09:07:47;;;;;;;24.10;13.28;;;;;;;2.77;87.35;98561.25;1723115;82;21131;-68
2021/01/08 09:10:18;;;;;;;21.73;12.15;;;;;;;2.83;87.58;98563.61;1725389;83;21105;-71
2021/01/08 09:13:38;;;;;;;23.73;13.22;;;;;;;2.89;87.23;98552.77;1724703;82;21217;-69
2021/01/08 09:16:17;;;;;;;20.27;12.90;;;;;;;2.76;87.12;98561.66;1726311;82;21265;-70
2021/01/08 09:19:11;;;;;;;23.00;13.60;;;;;;;2.79;87.32;98558.35;1725335;82;21141;-68
2021/01/08 09:21:48;;;;;;;21.05;12.33;;;;;;;2.83;86.91;98558.52;1725907;82;21173;-67
2021/01/08 09:24:31;;;;;;;23.47;13.03;;;;;;;2.80;86.33;98546.95;1729618;82;21217;-66
2021/01/08 09:27:05;;;;;;;19.62;12.37;;;;;;;2.65;86.47;98557.02;1722319;82;21136;-69
2021/01/08 09:29:35;;;;;;;21.45;12.88;;;;;;;2.61;86.81;98567.48;1736124;82;21170;-63
2021/01/08 09:32:08;;;;;;;21.52;12.45;;;;;;;2.61;86.98;98558.57;1737393;82;21605;-64
2021/01/08 09:34:37;;;;;;;21.95;11.93;;;;;;;2.57;86.93;98556.33;1728414;82;21158;-63
2021/01/08 09:37:15;;;;;;;19.27;11.60;;;;;;;2.53;87.01;98540.88;1722982;83;21316;-63
2021/01/08 09:39:44;;;;;;;22.13;13.43;;;;;;;2.51;86.40;98562.88;1725476;82;21607;-63
2021/01/08 09:42:12;;;;;;;23.50;13.28;;;;;;;2.45;86.74;98562.66;1721874;83;21153;-63
2021/01/08 09:44:41;;;;;;;23.12;12.80;;;;;;;2.44;87.23;98569.82;1716787;82;21106;-64
2021/01/08 09:47:16;;;;;;;20.27;12.70;;;;;;;2.52;87.40;98567.14;1723150;83;21141;-65
2021/01/08 09:49:50;;;;;;;29.50;17.17;;;;;;;2.57;87.58;98572.89;1725367;81;21118;-64
2021/01/08 09:52:29;;;;;;;24.60;15.63;;;;;;;2.69;87.56;98562.25;1725809;82;21544;-63
2021/01/08 09:54:59;;;;;;;24.15;14.95;;;;;;;2.82;86.85;98572.09;1724921;82;21738;-64
2021/01/08 09:57:35;;;;;;;21.17;12.75;;;;;;;2.92;86.69;98564.74;1724057;83;22047;-65
2021/01/08 10:00:08;;;;;;;24.57;12.47;;;;;;;2.97;86.27;98565.77;1724396;82;21710;-64
2021/01/08 10:02:48;;;;;;;17.30;11.28;;;;;;;2.86;85.74;98568.36;1720508;82;21529;-62
2021/01/08 10:05:32;;;;;;;16.97;10.18;;;;;;;2.73;85.73;98564.11;1731291;82;21109;-63
2021/01/08 10:08:03;;;;;;;18.92;11.68;;;;;;;2.61;85.81;98559.84;1732075;83;21060;-63
2021/01/08 10:10:42;;;;;;;21.23;12.03;;;;;;;2.56;85.90;98571.13;1732126;83;21093;-63
2021/01/08 10:13:20;;;;;;;17.48;10.90;;;;;;;2.65;86.18;98567.20;1732011;83;21030;-62
2021/01/08 10:15:51;;;;;;;19.95;10.72;;;;;;;2.67;84.99;98570.27;1695705;84;21233;-64
2021/01/08 10:18:27;;;;;;;17.40;10.43;;;;;;;2.64;85.23;98565.04;1673676;86;21228;-63
2021/01/08 10:21:06;;;;;;;17.80;9.10;;;;;;;2.64;85.01;98556.12;1715243;83;21067;-63
2021/01/08 10:23:41;;;;;;;16.42;9.75;;;;;;;2.64;84.76;98565.45;1722708;82;21186;-62
2021/01/08 10:26:14;;;;;;;16.67;10.10;;;;;;;2.51;84.49;98567.55;1728181;82;21115;-62
2021/01/08 10:28:54;;;;;;;16.00;9.80;;;;;;;2.44;84.72;98573.64;1725151;83;21456;-63
2021/01/08 10:31:24;;;;;;;16.30;9.43;;;;;;;2.45;84.59;98570.30;1722829;83;21197;-62
2021/01/08 10:33:52;;;;;;;14.53;8.80;;;;;;;2.38;84.58;98572.61;1723711;83;21180;-63
2021/01/08 10:36:20;;;;;;;16.50;7.95;;;;;;;2.38;84.24;98579.38;1723649;83;21038;-63
2021/01/08 10:38:48;;;;;;;13.32;8.18;;;;;;;2.37;83.81;98573.43;1723435;83;21034;-63
2021/01/08 10:41:17;;;;;;;17.25;10.05;;;;;;;2.29;83.30;98575.20;1721955;83;21083;-62
2021/01/08 10:43:45;;;;;;;14.80;9.23;;;;;;;2.17;83.72;98571.41;1720671;83;21039;-62
2021/01/08 10:46:14;;;;;;;15.68;9.68;;;;;;;2.14;84.19;98577.66;1723589;83;21631;-63
2021/01/08 10:48:43;;;;;;;15.35;9.80;;;;;;;2.22;84.49;98572.86;1728205;83;21026;-62
2021/01/08 10:51:11;;;;;;;16.65;10.10;;;;;;;2.29;84.57;98569.73;1719256;83;21066;-63
2021/01/08 10:53:38;;;;;;;16.27;9.43;;;;;;;2.30;84.61;98561.27;1734831;82;21030;-65
2021/01/08 10:56:06;;;;;;;16.62;9.58;;;;;;;2.32;84.39;98567.30;1740388;82;21078;-64
2021/01/08 10:58:34;;;;;;;17.82;10.35;;;;;;;2.35;83.86;98571.23;1738697;82;21061;-66
2021/01/08 11:01:03;;;;;;;16.60;8.85;;;;;;;2.35;83.52;98575.05;1737085;82;21493;-65
2021/01/08 11:03:31;;;;;;;16.15;10.13;;;;;;;2.43;83.54;98576.59;1731568;82;21196;-63
2021/01/08 11:05:59;;;;;;;14.00;8.30;;;;;;;2.49;83.38;98579.77;1734909;82;21227;-64
2021/01/08 11:08:27;;;;;;;15.45;9.08;;;;;;;2.55;82.88;98577.47;1727929;82;21038;-62
2021/01/08 11:10:55;;;;;;;16.95;9.33;;;;;;;2.61;82.52;98582.77;1734586;82;21010;-62
2021/01/08 11:13:23;;;;;;;15.30;9.60;;;;;;;2.70;82.38;98579.70;1694557;84;21168;-64
2021/01/08 11:15:51;;;;;;;18.17;9.75;;;;;;;2.76;81.67;98583.31;1668637;85;21074;-65
2021/01/08 11:18:21;;;;;;;13.13;8.90;;;;;;;2.75;81.31;98579.05;1695290;83;21199;-63
2021/01/08 11:20:49;;;;;;;18.92;11.10;;;;;;;2.71;80.98;98586.11;1705143;83;21086;-64
2021/01/08 11:23:17;;;;;;;19.42;10.40;;;;;;;2.73;81.24;98589.59;1705440;84;21073;-63
2021/01/08 11:25:45;;;;;;;17.73;10.50;;;;;;;2.75;80.68;98594.33;1705433;83;21231;-64
2021/01/08 11:28:12;;;;;;;18.65;9.88;;;;;;;2.77;80.51;98588.00;1705182;83;21090;-62
2021/01/08 11:30:40;;;;;;;15.72;10.00;;;;;;;2.75;80.33;98584.14;1705266;83;21085;-62
2021/01/08 11:33:08;;;;;;;19.12;11.15;;;;;;;2.76;80.63;98590.10;1705386;83;21204;-65
2021/01/08 11:35:37;;;;;;;17.60;10.35;;;;;;;2.76;80.26;98582.05;1705063;83;21239;-64
2021/01/08 11:38:05;;;;;;;16.15;9.95;;;;;;;2.70;80.65;98588.63;1705256;83;21195;-65
2021/01/08 11:40:33;;;;;;;14.38;9.05;;;;;;;2.63;80.16;98590.06;1705040;84;21208;-64
2021/01/08 11:43:03;;;;;;;12.88;8.13;;;;;;;2.52;79.44;98592.61;1704879;83;21659;-64
2021/01/08 11:45:30;;;;;;;16.25;9.70;;;;;;;2.46;79.93;98598.77;1705322;83;21061;-62
2021/01/08 11:47:58;;;;;;;17.52;9.05;;;;;;;2.52;79.83;98591.34;1710689;83;21074;-64
2021/01/08 11:50:26;;;;;;;13.40;8.60;;;;;;;2.56;79.48;98597.02;1714616;83;21038;-65